Time;durP1;ratioP1;P1;durP2;ratioP2;P2;SDS_P1;SDS_P2;PMS_P1;PMS_P2;Temp;Humidity;BMP_temperature;BMP_pressure;BME280_temperature;BME280_humidity;BME280_pressure;Samples;Min_cycle;Max_cycle;Signal;HPM_P1;HPM_P2
2023/12/25 00:00:38;;;;;;;0.50;0.50;;;;;;;;;;5049143;28;20233;-73
2023/12/25 00:03:04;;;;;;;0.40;0.40;;;;;;;;;;5048919;28;20294;-72
2023/12/25 00:05:31;;;;;;;0.50;0.50;;;;;;;;;;5048574;28;20270;-73
2023/12/25 00:07:57;;;;;;;0.40;0.40;;;;;;;;;;5048744;28;20209;-73
2023/12/25 00:10:23;;;;;;;0.93;0.52;;;;;;;;;;5048540;28;20216;-72
2023/12/25 00:12:49;;;;;;;0.60;0.60;;;;;;;;;;5048948;28;20205;-72
2023/12/25 00:15:16;;;;;;;0.50;0.50;;;;;;;;;;5048291;28;20225;-73
2023/12/25 00:17:43;;;;;;;0.30;0.30;;;;;;;;;;5048787;28;20231;-73
2023/12/25 00:20:10;;;;;;;1.88;0.60;;;;;;;;;;5049037;28;20225;-72
2023/12/25 00:22:37;;;;;;;0.60;0.60;;;;;;;;;;5048594;28;20709;-71
2023/12/25 00:25:03;;;;;;;0.50;0.50;;;;;;;;;;5048400;28;20264;-71
2023/12/25 00:27:29;;;;;;;0.47;0.47;;;;;;;;;;5048646;28;20205;-72
2023/12/25 00:29:56;;;;;;;0.30;0.30;;;;;;;;;;5049484;28;20209;-73
2023/12/25 00:32:22;;;;;;;1.15;0.60;;;;;;;;;;5048799;28;20873;-72
2023/12/25 00:34:50;;;;;;;1.05;0.55;;;;;;;;;;5048091;28;20215;-72
2023/12/25 00:37:17;;;;;;;0.50;0.50;;;;;;;;;;5050946;28;20225;-72
2023/12/25 00:39:43;;;;;;;0.60;0.60;;;;;;;;;;5051095;28;20213;-72
2023/12/25 00:42:09;;;;;;;0.70;0.63;;;;;;;;;;5049023;28;20217;-73
2023/12/25 00:44:35;;;;;;;0.40;0.40;;;;;;;;;;5048222;28;20209;-72
2023/12/25 00:47:02;;;;;;;0.75;0.43;;;;;;;;;;5048614;28;20231;-72
2023/12/25 00:49:28;;;;;;;0.65;0.50;;;;;;;;;;5049832;28;20553;-72
2023/12/25 00:51:55;;;;;;;0.40;0.40;;;;;;;;;;5049755;28;20673;-72
2023/12/25 00:54:22;;;;;;;3.30;0.50;;;;;;;;;;5049566;28;20676;-72
2023/12/25 00:56:48;;;;;;;0.40;0.40;;;;;;;;;;5049620;28;20225;-71
2023/12/25 00:59:14;;;;;;;0.38;0.38;;;;;;;;;;5049690;28;20204;-72
2023/12/25 01:01:40;;;;;;;0.50;0.50;;;;;;;;;;5049616;28;20974;-72
2023/12/25 01:04:07;;;;;;;1.38;0.40;;;;;;;;;;5049416;28;20209;-72
2023/12/25 01:06:33;;;;;;;2.25;0.70;;;;;;;;;;5049874;28;20221;-72
2023/12/25 01:09:00;;;;;;;0.40;0.40;;;;;;;;;;5049758;28;20209;-72
2023/12/25 01:11:27;;;;;;;1.08;0.50;;;;;;;;;;5049774;28;21051;-72
2023/12/25 01:13:53;;;;;;;0.50;0.50;;;;;;;;;;5049362;28;20211;-72
2023/12/25 01:16:20;;;;;;;1.23;0.50;;;;;;;;;;5049597;28;20225;-73
2023/12/25 01:18:46;;;;;;;0.50;0.50;;;;;;;;;;5049964;28;20205;-72
2023/12/25 01:21:12;;;;;;;0.85;0.50;;;;;;;;;;5050537;28;20205;-72
2023/12/25 01:23:38;;;;;;;0.50;0.50;;;;;;;;;;5049489;28;20670;-72
2023/12/25 01:26:06;;;;;;;1.67;0.50;;;;;;;;;;5051419;28;20354;-73
2023/12/25 01:28:35;;;;;;;0.50;0.50;;;;;;;;;;5051938;28;20201;-72
2023/12/25 01:31:03;;;;;;;1.45;0.60;;;;;;;;;;5051687;28;20293;-72
2023/12/25 01:33:30;;;;;;;0.50;0.50;;;;;;;;;;5051933;28;20557;-72
2023/12/25 01:35:56;;;;;;;0.50;0.50;;;;;;;;;;5053158;28;20228;-72
2023/12/25 01:38:22;;;;;;;0.40;0.40;;;;;;;;;;5051483;28;20208;-72
2023/12/25 01:40:48;;;;;;;0.30;0.30;;;;;;;;;;5050534;28;20258;-72
2023/12/25 01:43:16;;;;;;;0.40;0.40;;;;;;;;;;5051036;28;20205;-72
2023/12/25 01:45:42;;;;;;;0.43;0.43;;;;;;;;;;5049750;28;20283;-72
2023/12/25 01:48:09;;;;;;;0.40;0.40;;;;;;;;;;5050305;28;20201;-72
2023/12/25 01:50:35;;;;;;;0.88;0.50;;;;;;;;;;5050535;28;20215;-72
2023/12/25 01:53:02;;;;;;;0.57;0.57;;;;;;;;;;5051814;28;20216;-72
2023/12/25 01:55:28;;;;;;;0.55;0.55;;;;;;;;;;5053091;28;20279;-72
2023/12/25 01:57:55;;;;;;;1.38;0.50;;;;;;;;;;5055380;28;20225;-72
2023/12/25 02:00:22;;;;;;;0.40;0.40;;;;;;;;;;5055453;28;20205;-72
2023/12/25 02:02:49;;;;;;;0.50;0.50;;;;;;;;;;5052896;28;20208;-72
2023/12/25 02:05:15;;;;;;;0.40;0.40;;;;;;;;;;5052325;28;20225;-72
2023/12/25 02:07:43;;;;;;;1.63;0.50;;;;;;;;;;5052357;28;20669;-72
2023/12/25 02:10:10;;;;;;;0.47;0.40;;;;;;;;;;5052190;28;20209;-72
2023/12/25 02:12:36;;;;;;;0.75;0.50;;;;;;;;;;5052165;28;20209;-72
2023/12/25 02:15:02;;;;;;;1.38;0.50;;;;;;;;;;5051871;28;20224;-72
2023/12/25 02:17:31;;;;;;;1.38;0.40;;;;;;;;;;5052352;28;20221;-72
2023/12/25 02:19:57;;;;;;;0.60;0.60;;;;;;;;;;5052195;28;20290;-72
2023/12/25 02:22:24;;;;;;;0.40;0.40;;;;;;;;;;5051989;28;20616;-72
2023/12/25 02:24:56;;;;;;;0.52;0.38;;;;;;;;;;5051959;28;20204;-72
2023/12/25 02:27:23;;;;;;;0.32;0.32;;;;;;;;;;5052041;28;20661;-72
2023/12/25 02:29:50;;;;;;;0.77;0.40;;;;;;;;;;5052038;28;20201;-72
2023/12/25 02:32:16;;;;;;;2.05;0.50;;;;;;;;;;5052211;28;20517;-72
2023/12/25 02:34:44;;;;;;;0.40;0.40;;;;;;;;;;5051802;28;20197;-72
2023/12/25 02:37:10;;;;;;;0.40;0.40;;;;;;;;;;5052070;28;20437;-72
2023/12/25 02:39:36;;;;;;;0.47;0.30;;;;;;;;;;5051738;28;20251;-72
2023/12/25 02:42:03;;;;;;;0.50;0.50;;;;;;;;;;5051460;28;20654;-72
2023/12/25 02:44:30;;;;;;;0.63;0.40;;;;;;;;;;5051854;28;20205;-72
2023/12/25 02:46:57;;;;;;;0.88;0.40;;;;;;;;;;5051840;28;20270;-72
2023/12/25 02:49:22;;;;;;;0.50;0.50;;;;;;;;;;5051793;28;20205;-72
2023/12/25 02:51:48;;;;;;;0.50;0.50;;;;;;;;;;5051828;28;20197;-72
2023/12/25 02:54:15;;;;;;;0.30;0.30;;;;;;;;;;5051819;28;20292;-72
2023/12/25 02:56:41;;;;;;;0.85;0.50;;;;;;;;;;5051879;28;20271;-72
2023/12/25 02:59:07;;;;;;;0.47;0.47;;;;;;;;;;5051816;28;20201;-72
2023/12/25 03:01:35;;;;;;;0.50;0.50;;;;;;;;;;5051663;28;20205;-72
2023/12/25 03:04:01;;;;;;;0.50;0.50;;;;;;;;;;5051344;28;20673;-72
2023/12/25 03:06:27;;;;;;;0.52;0.52;;;;;;;;;;5051946;28;20334;-72
2023/12/25 03:08:54;;;;;;;0.40;0.40;;;;;;;;;;5051615;28;20196;-72
2023/12/25 03:11:20;;;;;;;0.50;0.50;;;;;;;;;;5051183;28;20274;-72
2023/12/25 03:13:46;;;;;;;1.13;0.50;;;;;;;;;;5051233;28;20201;-72
2023/12/25 03:16:12;;;;;;;0.40;0.40;;;;;;;;;;5051334;28;20224;-72
2023/12/25 03:18:40;;;;;;;0.70;0.70;;;;;;;;;;5051518;28;20208;-72
2023/12/25 03:21:06;;;;;;;0.95;0.50;;;;;;;;;;5051406;28;20287;-72
2023/12/25 03:23:32;;;;;;;0.60;0.50;;;;;;;;;;5051203;28;20230;-72
2023/12/25 03:25:59;;;;;;;0.50;0.40;;;;;;;;;;5051061;28;20267;-72
2023/12/25 03:28:26;;;;;;;0.40;0.40;;;;;;;;;;5051508;28;20203;-72
2023/12/25 03:30:53;;;;;;;1.13;0.40;;;;;;;;;;5051474;28;20220;-72
2023/12/25 03:33:19;;;;;;;0.60;0.50;;;;;;;;;;5051268;28;20263;-72
2023/12/25 03:35:47;;;;;;;2.13;0.50;;;;;;;;;;5051215;28;20225;-72
2023/12/25 03:38:13;;;;;;;0.47;0.47;;;;;;;;;;5051126;28;20221;-72
2023/12/25 03:40:40;;;;;;;0.85;0.60;;;;;;;;;;5050951;28;20216;-72
2023/12/25 03:43:07;;;;;;;0.40;0.38;;;;;;;;;;5051286;28;20205;-72
2023/12/25 03:45:33;;;;;;;0.55;0.30;;;;;;;;;;5050968;28;20270;-72
2023/12/25 03:48:00;;;;;;;0.38;0.38;;;;;;;;;;5051191;28;20235;-72
2023/12/25 03:50:26;;;;;;;0.40;0.40;;;;;;;;;;5050995;28;20197;-72
2023/12/25 03:52:53;;;;;;;1.75;0.50;;;;;;;;;;5051298;28;20263;-72
2023/12/25 03:55:20;;;;;;;0.70;0.70;;;;;;;;;;5051045;28;20312;-72
2023/12/25 03:57:46;;;;;;;0.35;0.35;;;;;;;;;;5051202;28;20279;-72
2023/12/25 04:00:13;;;;;;;1.38;0.40;;;;;;;;;;5051311;28;20209;-72
2023/12/25 04:02:39;;;;;;;0.55;0.47;;;;;;;;;;5051024;28;20201;-72
2023/12/25 04:05:06;;;;;;;0.50;0.50;;;;;;;;;;5050925;28;20629;-72
2023/12/25 04:07:32;;;;;;;0.52;0.52;;;;;;;;;;5055621;28;20201;-72
2023/12/25 04:10:00;;;;;;;0.35;0.35;;;;;;;;;;5054569;28;20238;-72
2023/12/25 04:12:27;;;;;;;0.43;0.43;;;;;;;;;;5054756;28;20665;-72
2023/12/25 04:14:53;;;;;;;0.50;0.50;;;;;;;;;;5054219;28;20855;-72
2023/12/25 04:17:19;;;;;;;0.38;0.38;;;;;;;;;;5054269;28;20599;-72
2023/12/25 04:19:45;;;;;;;0.65;0.65;;;;;;;;;;5054819;28;20200;-72
2023/12/25 04:22:13;;;;;;;1.13;0.40;;;;;;;;;;5054267;28;20196;-72
2023/12/25 04:24:39;;;;;;;0.40;0.40;;;;;;;;;;5054584;28;20251;-72
2023/12/25 04:27:07;;;;;;;1.00;0.40;;;;;;;;;;5054769;28;20200;-72
2023/12/25 04:29:33;;;;;;;0.73;0.40;;;;;;;;;;5054161;28;20209;-72
2023/12/25 04:31:59;;;;;;;0.40;0.40;;;;;;;;;;5054330;28;20251;-72
2023/12/25 04:34:25;;;;;;;0.63;0.60;;;;;;;;;;5054014;28;20197;-72
2023/12/25 04:36:52;;;;;;;0.60;0.60;;;;;;;;;;5054253;28;20278;-72
2023/12/25 04:39:18;;;;;;;0.75;0.60;;;;;;;;;;5054090;28;20250;-72
2023/12/25 04:41:44;;;;;;;0.45;0.45;;;;;;;;;;5054168;28;20213;-72
2023/12/25 04:44:12;;;;;;;0.52;0.40;;;;;;;;;;5054215;28;20205;-72
2023/12/25 04:46:39;;;;;;;1.08;0.65;;;;;;;;;;5054243;28;20560;-72
2023/12/25 04:49:06;;;;;;;0.52;0.30;;;;;;;;;;5054303;28;20291;-72
2023/12/25 04:51:32;;;;;;;1.75;0.50;;;;;;;;;;5053615;28;20231;-72
2023/12/25 04:53:58;;;;;;;0.50;0.50;;;;;;;;;;5053729;28;20216;-72
2023/12/25 04:56:25;;;;;;;0.88;0.40;;;;;;;;;;5053796;28;20221;-72
2023/12/25 04:58:51;;;;;;;0.60;0.60;;;;;;;;;;5053727;28;20352;-72
2023/12/25 05:01:19;;;;;;;0.40;0.40;;;;;;;;;;5053640;28;20204;-72
2023/12/25 05:03:45;;;;;;;0.40;0.40;;;;;;;;;;5053389;28;20208;-72
2023/12/25 05:06:11;;;;;;;0.50;0.50;;;;;;;;;;5053651;28;20229;-72
2023/12/25 05:08:38;;;;;;;0.40;0.40;;;;;;;;;;5053458;28;20201;-72
2023/12/25 05:11:04;;;;;;;1.35;0.73;;;;;;;;;;5053412;28;20197;-72
2023/12/25 05:13:31;;;;;;;0.40;0.40;;;;;;;;;;5053419;28;20208;-72
2023/12/25 05:15:57;;;;;;;0.35;0.35;;;;;;;;;;5053347;28;20308;-72
2023/12/25 05:18:25;;;;;;;0.82;0.50;;;;;;;;;;5053136;28;20221;-72
2023/12/25 05:20:50;;;;;;;1.60;0.40;;;;;;;;;;5053233;28;20213;-72
2023/12/25 05:23:16;;;;;;;0.50;0.50;;;;;;;;;;5053341;28;20201;-72
2023/12/25 05:25:43;;;;;;;0.50;0.50;;;;;;;;;;5053087;28;20225;-73
2023/12/25 05:28:09;;;;;;;0.75;0.50;;;;;;;;;;5053115;28;20200;-73
2023/12/25 05:30:35;;;;;;;1.88;0.38;;;;;;;;;;5053060;28;20201;-73
2023/12/25 05:33:02;;;;;;;0.45;0.45;;;;;;;;;;5052913;28;20205;-73
2023/12/25 05:35:29;;;;;;;0.50;0.50;;;;;;;;;;5053043;28;20225;-73
2023/12/25 05:37:56;;;;;;;0.30;0.30;;;;;;;;;;5052757;28;20705;-73
2023/12/25 05:40:22;;;;;;;0.60;0.50;;;;;;;;;;5053103;28;20233;-73
2023/12/25 05:42:48;;;;;;;0.38;0.38;;;;;;;;;;5053011;28;20201;-73
2023/12/25 05:45:14;;;;;;;0.40;0.40;;;;;;;;;;5052512;28;20631;-73
2023/12/25 05:47:41;;;;;;;0.50;0.50;;;;;;;;;;5052732;28;20197;-73
2023/12/25 05:50:08;;;;;;;0.75;0.75;;;;;;;;;;5052741;28;20212;-73
2023/12/25 05:52:36;;;;;;;0.50;0.45;;;;;;;;;;5052802;28;20201;-73
2023/12/25 05:55:02;;;;;;;0.45;0.45;;;;;;;;;;5052498;28;20227;-73
2023/12/25 05:57:29;;;;;;;0.90;0.60;;;;;;;;;;5052533;28;20228;-73
2023/12/25 05:59:55;;;;;;;0.40;0.40;;;;;;;;;;5052526;28;20874;-73
2023/12/25 06:02:21;;;;;;;0.50;0.50;;;;;;;;;;5052427;28;20743;-73
2023/12/25 06:04:48;;;;;;;1.50;0.47;;;;;;;;;;5052525;28;20223;-73
2023/12/25 06:07:14;;;;;;;0.80;0.45;;;;;;;;;;5052287;28;20732;-72
2023/12/25 06:09:42;;;;;;;0.60;0.60;;;;;;;;;;5052511;28;20242;-72
2023/12/25 06:12:08;;;;;;;0.65;0.50;;;;;;;;;;5052716;28;20670;-72
2023/12/25 06:14:35;;;;;;;0.40;0.40;;;;;;;;;;5054998;28;20201;-73
2023/12/25 06:17:02;;;;;;;0.50;0.50;;;;;;;;;;5057051;28;20629;-73
2023/12/25 06:19:28;;;;;;;0.68;0.68;;;;;;;;;;5052581;28;20664;-73
2023/12/25 06:21:54;;;;;;;0.40;0.40;;;;;;;;;;5052446;28;20630;-73
2023/12/25 06:24:21;;;;;;;0.35;0.35;;;;;;;;;;5052182;28;20614;-73
2023/12/25 06:26:48;;;;;;;1.38;0.50;;;;;;;;;;5051997;28;20600;-73
2023/12/25 06:29:14;;;;;;;0.60;0.60;;;;;;;;;;5051972;28;20224;-73
2023/12/25 06:31:41;;;;;;;0.65;0.50;;;;;;;;;;5051992;28;20254;-72
2023/12/25 06:34:07;;;;;;;0.60;0.60;;;;;;;;;;5051872;28;20201;-72
2023/12/25 06:36:34;;;;;;;0.50;0.50;;;;;;;;;;5052225;28;20572;-72
2023/12/25 06:39:00;;;;;;;0.50;0.50;;;;;;;;;;5051908;28;20229;-72
2023/12/25 06:41:26;;;;;;;0.65;0.38;;;;;;;;;;5051845;28;20212;-72
2023/12/25 06:43:54;;;;;;;0.57;0.57;;;;;;;;;;5051802;28;20209;-73
2023/12/25 06:46:20;;;;;;;0.30;0.30;;;;;;;;;;5051996;28;20229;-72
2023/12/25 06:48:46;;;;;;;0.50;0.50;;;;;;;;;;5052058;28;20201;-72
2023/12/25 06:51:12;;;;;;;0.40;0.40;;;;;;;;;;5051895;28;20304;-72
2023/12/25 06:53:39;;;;;;;0.90;0.60;;;;;;;;;;5051591;28;20205;-72
2023/12/25 06:56:07;;;;;;;2.85;0.60;;;;;;;;;;5051517;28;20258;-63
2023/12/25 06:58:33;;;;;;;0.60;0.60;;;;;;;;;;5051519;28;20232;-63
2023/12/25 07:01:02;;;;;;;0.55;0.55;;;;;;;;;;5051560;28;20231;-63
2023/12/25 07:03:29;;;;;;;0.63;0.63;;;;;;;;;;5051600;28;20704;-63
2023/12/25 07:05:55;;;;;;;0.70;0.65;;;;;;;;;;5051456;28;20221;-64
2023/12/25 07:08:21;;;;;;;0.80;0.80;;;;;;;;;;5051499;28;20247;-64
2023/12/25 07:10:47;;;;;;;0.70;0.70;;;;;;;;;;5051341;28;20197;-64
2023/12/25 07:13:14;;;;;;;0.60;0.60;;;;;;;;;;5051707;28;20208;-64
2023/12/25 07:15:40;;;;;;;3.70;0.75;;;;;;;;;;5051346;28;20642;-64
2023/12/25 07:18:08;;;;;;;0.90;0.90;;;;;;;;;;5051574;28;20228;-64
2023/12/25 07:20:34;;;;;;;1.67;1.00;;;;;;;;;;5051739;28;20608;-65
2023/12/25 07:23:01;;;;;;;4.13;1.30;;;;;;;;;;5051819;28;20270;-64
2023/12/25 07:25:27;;;;;;;1.58;1.52;;;;;;;;;;5051802;28;20308;-64
2023/12/25 07:27:53;;;;;;;50.47;22.10;;;;;;;;;;5051633;28;20189;-64
2023/12/25 07:30:20;;;;;;;0.82;0.82;;;;;;;;;;5051323;28;20251;-64
2023/12/25 07:32:46;;;;;;;24.90;10.10;;;;;;;;;;5051272;28;20665;-64
2023/12/25 07:35:14;;;;;;;11.18;6.40;;;;;;;;;;5051385;28;20750;-64
2023/12/25 07:37:40;;;;;;;2.28;1.73;;;;;;;;;;5051253;28;20201;-64
2023/12/25 07:40:07;;;;;;;1.42;1.15;;;;;;;;;;5050909;28;20605;-64
2023/12/25 07:42:33;;;;;;;0.70;0.70;;;;;;;;;;5051511;28;20205;-64
2023/12/25 07:45:00;;;;;;;1.05;0.90;;;;;;;;;;5052782;28;20271;-63
2023/12/25 07:47:26;;;;;;;1.70;1.60;;;;;;;;;;5055106;28;20288;-63
2023/12/25 07:49:53;;;;;;;0.60;0.60;;;;;;;;;;5054907;28;20205;-63
2023/12/25 07:52:20;;;;;;;0.70;0.70;;;;;;;;;;5054880;28;20197;-63
2023/12/25 07:54:47;;;;;;;4.65;2.25;;;;;;;;;;5054688;28;20267;-63
2023/12/25 07:57:13;;;;;;;10.55;4.75;;;;;;;;;;5055059;28;20300;-63
2023/12/25 07:59:39;;;;;;;2.67;1.17;;;;;;;;;;5054689;28;20252;-63
2023/12/25 08:02:05;;;;;;;4.13;1.55;;;;;;;;;;5054844;28;20306;-63
2023/12/25 08:04:31;;;;;;;0.70;0.60;;;;;;;;;;5054814;28;20615;-63
2023/12/25 08:06:58;;;;;;;2.80;0.77;;;;;;;;;;5054498;28;20637;-64
2023/12/25 08:09:26;;;;;;;0.60;0.60;;;;;;;;;;5054398;28;20665;-64
2023/12/25 08:11:52;;;;;;;0.50;0.50;;;;;;;;;;5054468;28;20678;-64
2023/12/25 08:14:18;;;;;;;0.50;0.50;;;;;;;;;;5054314;28;20209;-64
2023/12/25 08:16:44;;;;;;;0.45;0.45;;;;;;;;;;5054487;28;20224;-64
2023/12/25 08:19:11;;;;;;;0.68;0.60;;;;;;;;;;5054504;28;20221;-64
2023/12/25 08:21:37;;;;;;;0.70;0.50;;;;;;;;;;5054848;28;20201;-64
2023/12/25 08:24:03;;;;;;;1.20;0.60;;;;;;;;;;5055089;28;20205;-64
2023/12/25 08:26:31;;;;;;;0.77;0.77;;;;;;;;;;5054328;28;20301;-64
2023/12/25 08:28:58;;;;;;;1.85;0.60;;;;;;;;;;5054367;28;20198;-64
2023/12/25 08:31:24;;;;;;;0.70;0.70;;;;;;;;;;5054101;28;20254;-64
2023/12/25 08:33:50;;;;;;;0.82;0.80;;;;;;;;;;5053993;28;20677;-64
2023/12/25 08:36:16;;;;;;;0.60;0.60;;;;;;;;;;5053984;28;20221;-64
2023/12/25 08:38:42;;;;;;;0.50;0.50;;;;;;;;;;5054079;28;20225;-64
2023/12/25 08:41:09;;;;;;;1.10;0.60;;;;;;;;;;5053972;28;20220;-64
2023/12/25 08:43:36;;;;;;;0.60;0.60;;;;;;;;;;5053947;28;20201;-64
2023/12/25 08:46:03;;;;;;;0.43;0.43;;;;;;;;;;5053759;28;20221;-64
2023/12/25 08:48:29;;;;;;;0.57;0.57;;;;;;;;;;5053774;28;20202;-64
2023/12/25 08:50:55;;;;;;;0.50;0.50;;;;;;;;;;5053614;28;20250;-64
2023/12/25 08:53:22;;;;;;;0.60;0.60;;;;;;;;;;5053936;28;20255;-64
2023/12/25 08:55:48;;;;;;;0.65;0.65;;;;;;;;;;5053451;28;20724;-64
2023/12/25 08:58:14;;;;;;;0.70;0.70;;;;;;;;;;5053592;28;20630;-63
2023/12/25 09:00:42;;;;;;;0.70;0.70;;;;;;;;;;5053508;28;20666;-63
2023/12/25 09:03:08;;;;;;;1.20;1.20;;;;;;;;;;5053628;28;20728;-63
2023/12/25 09:05:34;;;;;;;0.77;0.77;;;;;;;;;;5053330;28;20229;-63
2023/12/25 09:08:01;;;;;;;0.45;0.45;;;;;;;;;;5053575;28;20201;-63
2023/12/25 09:10:27;;;;;;;0.85;0.73;;;;;;;;;;5053532;28;20216;-64
2023/12/25 09:12:53;;;;;;;0.70;0.70;;;;;;;;;;5053571;28;20197;-64
2023/12/25 09:15:19;;;;;;;0.70;0.70;;;;;;;;;;5053165;28;20225;-64
2023/12/25 09:17:48;;;;;;;0.77;0.77;;;;;;;;;;5053299;28;20213;-64
2023/12/25 09:20:15;;;;;;;1.02;0.70;;;;;;;;;;5053015;28;20224;-64
2023/12/25 09:22:41;;;;;;;0.60;0.60;;;;;;;;;;5053441;28;20201;-64
2023/12/25 09:25:07;;;;;;;0.55;0.55;;;;;;;;;;5053145;28;20354;-64
2023/12/25 09:27:34;;;;;;;0.70;0.70;;;;;;;;;;5053460;28;20201;-64
2023/12/25 09:30:00;;;;;;;1.60;0.75;;;;;;;;;;5052987;28;20200;-64
2023/12/25 09:32:27;;;;;;;0.65;0.65;;;;;;;;;;5052907;28;20691;-64
2023/12/25 09:34:55;;;;;;;0.65;0.50;;;;;;;;;;5052938;28;20324;-64
2023/12/25 09:37:21;;;;;;;0.60;0.60;;;;;;;;;;5052899;28;20674;-64
2023/12/25 09:39:47;;;;;;;0.68;0.68;;;;;;;;;;5052664;28;20714;-64
2023/12/25 09:42:13;;;;;;;0.50;0.50;;;;;;;;;;5052753;28;20678;-64
2023/12/25 09:44:40;;;;;;;1.85;0.88;;;;;;;;;;5052673;28;20209;-64
2023/12/25 09:47:07;;;;;;;0.50;0.50;;;;;;;;;;5052664;28;20407;-64
2023/12/25 09:49:35;;;;;;;0.85;0.80;;;;;;;;;;5053200;28;20197;-64
2023/12/25 09:52:03;;;;;;;0.80;0.68;;;;;;;;;;5052864;28;20201;-64
2023/12/25 09:54:29;;;;;;;0.50;0.50;;;;;;;;;;5052607;28;20205;-64
2023/12/25 09:56:56;;;;;;;0.70;0.70;;;;;;;;;;5052416;28;20636;-63
2023/12/25 09:59:22;;;;;;;0.70;0.70;;;;;;;;;;5052435;28;20221;-63
2023/12/25 10:01:49;;;;;;;1.60;0.70;;;;;;;;;;5052399;28;20197;-63
2023/12/25 10:04:15;;;;;;;0.70;0.70;;;;;;;;;;5052267;28;20205;-63
2023/12/25 10:06:43;;;;;;;0.80;0.80;;;;;;;;;;5051995;28;20232;-63
2023/12/25 10:09:11;;;;;;;0.45;0.40;;;;;;;;;;5052204;28;20197;-63
2023/12/25 10:11:37;;;;;;;0.65;0.65;;;;;;;;;;5052189;28;20681;-64
2023/12/25 10:14:04;;;;;;;0.93;0.52;;;;;;;;;;5051994;28;20292;-63
2023/12/25 10:16:30;;;;;;;0.95;0.43;;;;;;;;;;5052474;28;20755;-63
2023/12/25 10:18:56;;;;;;;0.68;0.68;;;;;;;;;;5052290;28;20229;-63
2023/12/25 10:21:22;;;;;;;0.50;0.50;;;;;;;;;;5052505;28;20266;-63
2023/12/25 10:23:49;;;;;;;0.50;0.50;;;;;;;;;;5052569;28;20262;-62
2023/12/25 10:26:26;;;;;;;0.45;0.45;;;;;;;;;;5052966;28;20220;-62
2023/12/25 10:28:52;;;;;;;0.47;0.45;;;;;;;;;;5052666;28;20196;-62
2023/12/25 10:31:27;;;;;;;1.95;0.75;;;;;;;;;;5051823;28;20248;-63
2023/12/25 10:33:57;;;;;;;0.40;0.40;;;;;;;;;;5051936;28;20294;-63
2023/12/25 10:36:24;;;;;;;0.57;0.57;;;;;;;;;;5051769;28;20854;-63
2023/12/25 10:38:51;;;;;;;0.73;0.40;;;;;;;;;;5051773;28;20219;-63
2023/12/25 10:41:19;;;;;;;0.40;0.40;;;;;;;;;;5051521;28;20303;-63
2023/12/25 10:43:49;;;;;;;0.50;0.50;;;;;;;;;;5051843;28;20197;-63
2023/12/25 10:46:17;;;;;;;0.60;0.60;;;;;;;;;;5051812;28;20279;-63
2023/12/25 10:48:48;;;;;;;0.60;0.60;;;;;;;;;;5051974;28;20267;-64
2023/12/25 10:51:15;;;;;;;0.50;0.40;;;;;;;;;;5051595;28;20663;-63
2023/12/25 10:53:41;;;;;;;0.40;0.40;;;;;;;;;;5051448;28;20288;-63
2023/12/25 10:56:08;;;;;;;1.95;0.40;;;;;;;;;;5051810;28;20233;-63
2023/12/25 10:58:36;;;;;;;0.60;0.60;;;;;;;;;;5051764;28;20314;-63
2023/12/25 11:01:02;;;;;;;0.77;0.32;;;;;;;;;;5051583;28;20204;-63
2023/12/25 11:03:29;;;;;;;1.42;0.40;;;;;;;;;;5051453;28;20259;-63
2023/12/25 11:05:56;;;;;;;0.60;0.60;;;;;;;;;;5051334;28;20221;-63
2023/12/25 11:08:23;;;;;;;4.93;0.60;;;;;;;;;;5051493;28;20627;-63
2023/12/25 11:10:49;;;;;;;0.40;0.40;;;;;;;;;;5051524;28;20221;-63
2023/12/25 11:13:16;;;;;;;0.40;0.40;;;;;;;;;;5047193;28;20212;-63
2023/12/25 11:15:43;;;;;;;0.68;0.63;;;;;;;;;;5047475;28;20229;-63
2023/12/25 11:18:10;;;;;;;0.40;0.40;;;;;;;;;;5040162;28;20201;-63
2023/12/25 11:20:36;;;;;;;1.67;0.50;;;;;;;;;;5051793;28;20228;-63
2023/12/25 11:23:03;;;;;;;0.85;0.43;;;;;;;;;;5052098;28;20685;-63
2023/12/25 11:25:33;;;;;;;0.30;0.30;;;;;;;;;;5052373;28;20316;-63
2023/12/25 11:27:59;;;;;;;0.40;0.40;;;;;;;;;;5052035;28;20228;-63
2023/12/25 11:30:26;;;;;;;0.50;0.40;;;;;;;;;;5051691;28;20200;-63
2023/12/25 11:32:54;;;;;;;0.70;0.30;;;;;;;;;;5051881;28;20204;-62
2023/12/25 11:35:25;;;;;;;0.95;0.57;;;;;;;;;;5051371;28;20259;-62
2023/12/25 11:38:11;;;;;;;0.70;0.70;;;;;;;;;;5051906;28;20335;-62
2023/12/25 11:40:39;;;;;;;1.60;0.60;;;;;;;;;;5051657;28;20778;-62
2023/12/25 11:43:07;;;;;;;0.73;0.73;;;;;;;;;;5051730;28;20292;-63
2023/12/25 11:45:37;;;;;;;0.50;0.50;;;;;;;;;;5052430;28;20221;-61
2023/12/25 11:48:08;;;;;;;0.40;0.40;;;;;;;;;;5054950;28;20193;-62
2023/12/25 11:50:34;;;;;;;1.08;0.38;;;;;;;;;;5055130;28;20363;-61
2023/12/25 11:53:01;;;;;;;0.35;0.35;;;;;;;;;;5055109;28;20201;-61
2023/12/25 11:55:27;;;;;;;0.45;0.40;;;;;;;;;;5054814;28;20221;-62
2023/12/25 11:57:53;;;;;;;0.30;0.30;;;;;;;;;;5054758;28;20201;-61
2023/12/25 12:00:21;;;;;;;1.00;0.40;;;;;;;;;;5054615;28;20263;-61
2023/12/25 12:02:47;;;;;;;0.30;0.30;;;;;;;;;;5054944;28;20279;-61
2023/12/25 12:05:15;;;;;;;1.20;0.32;;;;;;;;;;5054616;28;20312;-61
2023/12/25 12:07:41;;;;;;;0.40;0.40;;;;;;;;;;5054512;28;20204;-61
2023/12/25 12:10:08;;;;;;;0.30;0.30;;;;;;;;;;5054339;28;20231;-61
2023/12/25 12:12:35;;;;;;;0.60;0.60;;;;;;;;;;5054963;28;20201;-61
2023/12/25 12:15:02;;;;;;;1.10;0.90;;;;;;;;;;5054105;28;20274;-61
2023/12/25 12:17:28;;;;;;;1.33;0.57;;;;;;;;;;5054665;28;20201;-61
2023/12/25 12:19:54;;;;;;;0.80;0.80;;;;;;;;;;5054362;28;20217;-61
2023/12/25 12:22:23;;;;;;;1.08;0.50;;;;;;;;;;5054424;28;20228;-61
2023/12/25 12:24:50;;;;;;;0.95;0.95;;;;;;;;;;5054294;28;20215;-61
2023/12/25 12:27:19;;;;;;;0.90;0.90;;;;;;;;;;5054311;28;20212;-61
2023/12/25 12:29:47;;;;;;;1.58;1.52;;;;;;;;;;5053559;28;20581;-61
2023/12/25 12:32:13;;;;;;;1.20;1.10;;;;;;;;;;5054336;28;20201;-61
2023/12/25 12:34:39;;;;;;;2.35;2.15;;;;;;;;;;5054189;28;20208;-61
2023/12/25 12:37:07;;;;;;;1.15;1.15;;;;;;;;;;5054456;28;20201;-61
2023/12/25 12:39:35;;;;;;;1.30;1.27;;;;;;;;;;5053718;28;20221;-61
2023/12/25 12:42:01;;;;;;;1.38;1.35;;;;;;;;;;5053821;28;20208;-61
2023/12/25 12:44:27;;;;;;;0.65;0.65;;;;;;;;;;5053673;28;20201;-61
2023/12/25 12:46:54;;;;;;;1.55;0.70;;;;;;;;;;5053982;28;20229;-61
2023/12/25 12:49:20;;;;;;;1.27;0.70;;;;;;;;;;5053747;28;20627;-60
2023/12/25 12:51:47;;;;;;;0.65;0.65;;;;;;;;;;5053863;28;20258;-61
2023/12/25 12:54:13;;;;;;;0.95;0.52;;;;;;;;;;5053572;28;20209;-60
2023/12/25 12:56:40;;;;;;;0.40;0.40;;;;;;;;;;5053408;28;20221;-61
2023/12/25 12:59:08;;;;;;;0.40;0.40;;;;;;;;;;5053816;28;20201;-61
2023/12/25 13:01:34;;;;;;;0.30;0.30;;;;;;;;;;5053642;28;20201;-60
2023/12/25 13:04:00;;;;;;;0.43;0.43;;;;;;;;;;5053535;28;20204;-60
2023/12/25 13:06:27;;;;;;;0.80;0.40;;;;;;;;;;5053513;28;20267;-60
2023/12/25 13:08:53;;;;;;;0.30;0.30;;;;;;;;;;5053640;28;20201;-60
2023/12/25 13:11:22;;;;;;;0.40;0.40;;;;;;;;;;5053749;28;20288;-60
2023/12/25 13:13:49;;;;;;;0.40;0.40;;;;;;;;;;5053629;28;20259;-60
2023/12/25 13:16:18;;;;;;;0.43;0.43;;;;;;;;;;5053910;28;20508;-61
2023/12/25 13:18:45;;;;;;;0.52;0.30;;;;;;;;;;5053515;28;20197;-60
2023/12/25 13:21:11;;;;;;;0.65;0.32;;;;;;;;;;5053242;28;20274;-60
2023/12/25 13:23:37;;;;;;;0.30;0.30;;;;;;;;;;5053104;28;20224;-60
2023/12/25 13:26:04;;;;;;;0.45;0.40;;;;;;;;;;5052943;28;20225;-60
2023/12/25 13:28:30;;;;;;;0.65;0.38;;;;;;;;;;5053317;28;20209;-60
2023/12/25 13:30:58;;;;;;;0.30;0.30;;;;;;;;;;5052950;28;20549;-61
2023/12/25 13:33:24;;;;;;;0.40;0.40;;;;;;;;;;5052860;28;20631;-60
2023/12/25 13:35:50;;;;;;;0.30;0.30;;;;;;;;;;5052867;28;20640;-60
2023/12/25 13:38:16;;;;;;;0.60;0.60;;;;;;;;;;5052807;28;20673;-60
2023/12/25 13:40:42;;;;;;;0.40;0.40;;;;;;;;;;5052717;28;20300;-60
2023/12/25 13:43:09;;;;;;;0.40;0.40;;;;;;;;;;5051889;28;20205;-60
2023/12/25 13:45:35;;;;;;;0.30;0.30;;;;;;;;;;5052519;28;20771;-60
2023/12/25 13:48:03;;;;;;;0.60;0.40;;;;;;;;;;5052725;28;20699;-60
2023/12/25 13:50:29;;;;;;;0.82;0.40;;;;;;;;;;5052638;28;20201;-60
2023/12/25 13:52:55;;;;;;;0.20;0.20;;;;;;;;;;5052610;28;20292;-60
2023/12/25 13:55:22;;;;;;;0.32;0.30;;;;;;;;;;5052285;28;20221;-60
2023/12/25 13:57:48;;;;;;;0.38;0.38;;;;;;;;;;5052496;28;20731;-60
2023/12/25 14:00:14;;;;;;;0.40;0.40;;;;;;;;;;5052433;28;20221;-60
2023/12/25 14:02:41;;;;;;;0.40;0.40;;;;;;;;;;5052529;28;20228;-60
2023/12/25 14:05:10;;;;;;;0.30;0.30;;;;;;;;;;5052420;28;20220;-60
2023/12/25 14:07:37;;;;;;;0.50;0.50;;;;;;;;;;5052222;28;20197;-60
2023/12/25 14:10:04;;;;;;;0.28;0.28;;;;;;;;;;5052309;28;20209;-60
2023/12/25 14:12:31;;;;;;;0.30;0.30;;;;;;;;;;5052409;28;20201;-60
2023/12/25 14:14:57;;;;;;;3.83;0.30;;;;;;;;;;5052148;28;20225;-60
2023/12/25 14:17:23;;;;;;;1.25;0.47;;;;;;;;;;5052367;28;20312;-60
2023/12/25 14:19:50;;;;;;;0.35;0.35;;;;;;;;;;5052008;28;20205;-60
2023/12/25 14:22:17;;;;;;;0.30;0.30;;;;;;;;;;5052063;28;20263;-60
2023/12/25 14:24:43;;;;;;;0.55;0.40;;;;;;;;;;5052016;28;20201;-60
2023/12/25 14:27:11;;;;;;;0.30;0.30;;;;;;;;;;5052140;28;20209;-60
2023/12/25 14:29:38;;;;;;;1.10;0.40;;;;;;;;;;5052108;28;20201;-61
2023/12/25 14:32:05;;;;;;;0.40;0.40;;;;;;;;;;5052334;28;20588;-61
2023/12/25 14:34:31;;;;;;;0.40;0.40;;;;;;;;;;5051636;28;20662;-61
2023/12/25 14:36:57;;;;;;;0.50;0.50;;;;;;;;;;5052024;28;20363;-60
2023/12/25 14:39:25;;;;;;;0.70;0.50;;;;;;;;;;5051824;28;20216;-60